Riverwood, Louisiana
Current Conditions -  °F | °C
As of 3:15 PM on Sunday 23 Nov 2014 (Local Time) from KHDC Reporting Station
Scattered Clouds Scattered Clouds  
Wind Chill: 75°   Ceiling: Unl
Heat Index: 75°   Visibility: 10mi
Dew Point: 55°   Wind: 17mph
Humidity: 50%   Direction: 230°SW
Pressure: 29.63"   Gusts: 23mph
Location:  30.4598°N, 90.1271°W
Report Text: KHDC 232115Z AUTO 23015G20KT 10SM SCT038 24/13 A2963 RMK AO2
Loading
Personal Weather Stations






























Interactive Weather Map New forecast layout! Learn more

10-Day Weather Forecast

Advertisements
Track Severe Weather on mobile